createdAt,value
2019-03-26T00:02:05.955Z,10.37
2019-03-26T00:04:37.695Z,10.33
2019-03-26T00:07:09.317Z,13.27
2019-03-26T00:09:41.382Z,10.50
2019-03-26T00:12:12.825Z,10.20
2019-03-26T00:14:44.586Z,11.60
2019-03-26T00:17:16.341Z,10.63
2019-03-26T00:19:48.404Z,10.27
2019-03-26T00:22:20.111Z,10.60
2019-03-26T00:24:52.845Z,10.40
2019-03-26T00:27:24.601Z,10.07
2019-03-26T00:29:55.747Z,10.17
2019-03-26T00:32:27.211Z,10.20
2019-03-26T00:34:58.823Z,10.37
2019-03-26T00:37:29.749Z,10.50
2019-03-26T00:40:00.937Z,10.00
2019-03-26T00:42:31.796Z,10.17
2019-03-26T00:45:03.282Z,10.77
2019-03-26T00:47:34.365Z,11.53
2019-03-26T00:50:06.193Z,10.27
2019-03-26T00:52:37.329Z,10.47
2019-03-26T00:55:22.028Z,11.00
2019-03-26T00:57:42.419Z,10.27
2019-03-26T01:00:14.931Z,9.13
2019-03-26T01:02:45.857Z,9.03
2019-03-26T01:05:17.282Z,9.97
2019-03-26T01:07:48.221Z,9.97
2019-03-26T01:10:28.489Z,9.97
2019-03-26T01:12:59.351Z,10.93
2019-03-26T01:15:30.772Z,10.27
2019-03-26T01:18:01.635Z,10.30
2019-03-26T01:20:32.746Z,9.47
2019-03-26T01:23:03.725Z,9.50
2019-03-26T01:25:34.990Z,10.07
2019-03-26T01:28:06.490Z,11.43
2019-03-26T01:30:38.240Z,9.37
2019-03-26T01:33:10.009Z,10.17
2019-03-26T01:35:41.513Z,8.73
2019-03-26T01:38:13.531Z,9.87
2019-03-26T01:40:45.206Z,10.27
2019-03-26T01:43:17.346Z,10.67
2019-03-26T01:45:49.409Z,9.80
2019-03-26T01:48:21.166Z,11.47
2019-03-26T01:50:52.703Z,10.13
2019-03-26T01:53:24.690Z,9.77
2019-03-26T01:55:56.754Z,9.47
2019-03-26T01:58:28.103Z,10.67
2019-03-26T02:00:59.658Z,9.60
2019-03-26T02:03:31.753Z,9.97
2019-03-26T02:06:03.479Z,10.17
2019-03-26T02:08:34.921Z,9.60
2019-03-26T02:11:06.991Z,9.77
2019-03-26T02:13:38.750Z,9.47
2019-03-26T02:16:10.464Z,9.23
2019-03-26T02:18:41.981Z,10.00
2019-03-26T02:21:14.952Z,9.07
2019-03-26T02:23:46.610Z,9.83
2019-03-26T02:26:19.322Z,9.00
2019-03-26T02:28:51.146Z,10.30
2019-03-26T02:31:23.214Z,8.60
2019-03-26T02:33:54.798Z,9.57
2019-03-26T02:36:27.337Z,9.83
2019-03-26T02:38:59.401Z,9.07
2019-03-26T02:41:30.940Z,8.17
2019-03-26T02:44:02.333Z,9.43
2019-03-26T02:46:34.056Z,9.03
2019-03-26T02:49:06.125Z,8.83
2019-03-26T02:51:38.198Z,8.80
2019-03-26T02:54:10.269Z,9.30
2019-03-26T02:56:41.478Z,9.80
2019-03-26T02:59:12.861Z,7.93
2019-03-26T03:01:44.535Z,8.10
2019-03-26T03:04:16.072Z,8.30
2019-03-26T03:06:48.550Z,10.27
2019-03-26T03:09:20.189Z,8.27
2019-03-26T03:11:51.556Z,8.40
2019-03-26T03:14:23.400Z,8.77
2019-03-26T03:16:54.842Z,7.03
2019-03-26T03:19:27.530Z,6.80
2019-03-26T03:21:59.290Z,8.23
2019-03-26T03:24:31.044Z,7.83
2019-03-26T03:27:02.814Z,8.30
2019-03-26T03:29:34.563Z,8.90
2019-03-26T03:32:06.210Z,7.20
2019-03-26T03:34:38.075Z,6.80
2019-03-26T03:37:09.531Z,7.07
2019-03-26T03:39:40.995Z,8.23
2019-03-26T03:42:12.434Z,7.53
2019-03-26T03:44:44.503Z,8.17
2019-03-26T03:47:18.066Z,7.20
2019-03-26T03:49:49.519Z,7.40
2019-03-26T03:52:23.087Z,6.70
2019-03-26T03:54:55.213Z,6.73
2019-03-26T03:57:30.307Z,7.37
2019-03-26T04:00:03.638Z,7.83
2019-03-26T04:02:35.098Z,6.60
2019-03-26T04:05:08.399Z,7.40
2019-03-26T04:07:40.151Z,8.67
2019-03-26T04:10:11.598Z,6.70
2019-03-26T04:12:44.588Z,7.37
2019-03-26T04:15:16.345Z,7.50
2019-03-26T04:17:48.407Z,8.77
2019-03-26T04:20:20.237Z,8.83
2019-03-26T04:22:51.651Z,7.17
2019-03-26T04:25:23.079Z,6.50
2019-03-26T04:27:54.698Z,6.30
2019-03-26T04:30:31.503Z,6.87
2019-03-26T04:33:03.260Z,6.87
2019-03-26T04:35:34.711Z,6.03
2019-03-26T04:38:06.465Z,6.83
2019-03-26T04:40:38.226Z,6.70
2019-03-26T04:43:09.634Z,7.83
2019-03-26T04:45:41.141Z,7.87
2019-03-26T04:48:12.882Z,7.07
2019-03-26T04:50:44.945Z,6.67
2019-03-26T04:53:17.020Z,8.00
2019-03-26T04:55:49.085Z,7.57
2019-03-26T04:58:21.453Z,7.23
2019-03-26T05:00:53.567Z,7.90
2019-03-26T05:03:25.273Z,7.73
2019-03-26T05:05:57.907Z,6.37
2019-03-26T05:08:29.709Z,6.77
2019-03-26T05:11:01.796Z,6.80
2019-03-26T05:13:33.236Z,7.10
2019-03-26T05:16:04.984Z,6.87
2019-03-26T05:18:36.746Z,7.13
2019-03-26T05:21:08.455Z,6.73
2019-03-26T05:23:39.951Z,6.33
2019-03-26T05:26:11.423Z,5.90
2019-03-26T05:28:42.859Z,6.13
2019-03-26T05:31:14.925Z,7.27
2019-03-26T05:33:46.995Z,6.33
2019-03-26T05:36:19.056Z,6.23
2019-03-26T05:38:51.151Z,6.63
2019-03-26T05:41:22.567Z,6.47
2019-03-26T05:43:54.030Z,6.30
2019-03-26T05:46:25.378Z,7.13
2019-03-26T05:48:57.227Z,5.20
2019-03-26T05:51:28.982Z,6.83
2019-03-26T05:54:00.747Z,6.00
2019-03-26T05:56:32.506Z,6.70
2019-03-26T05:59:04.497Z,8.57
2019-03-26T06:01:36.020Z,6.47
2019-03-26T06:04:07.310Z,6.37
2019-03-26T06:06:40.144Z,7.23
2019-03-26T06:09:11.311Z,5.53
2019-03-26T06:11:43.055Z,8.43
2019-03-26T06:14:15.120Z,6.07
2019-03-26T06:16:47.184Z,6.67
2019-03-26T06:19:18.662Z,8.77
2019-03-26T06:21:50.310Z,5.50
2019-03-26T06:24:21.596Z,7.97
2019-03-26T06:26:52.995Z,8.57
2019-03-26T06:29:24.457Z,6.60
2019-03-26T06:31:56.247Z,6.47
2019-03-26T06:34:27.646Z,7.17
2019-03-26T06:36:59.706Z,7.67
2019-03-26T06:39:31.326Z,8.17
2019-03-26T06:42:03.254Z,7.53
2019-03-26T06:44:35.295Z,8.43
2019-03-26T06:47:07.046Z,9.33
2019-03-26T06:49:39.111Z,8.23
2019-03-26T06:52:09.970Z,9.10
2019-03-26T06:54:41.093Z,6.57
2019-03-26T06:57:11.959Z,8.07
2019-03-26T06:59:42.944Z,7.17
2019-03-26T07:02:13.764Z,6.53
2019-03-26T07:04:50.248Z,8.57
2019-03-26T07:07:31.402Z,9.20
2019-03-26T07:09:55.941Z,6.43
2019-03-26T07:12:26.817Z,6.23
2019-03-26T07:14:57.926Z,8.60
2019-03-26T07:17:29.364Z,6.30
2019-03-26T07:20:02.055Z,8.70
2019-03-26T07:22:32.911Z,7.47
2019-03-26T07:25:04.356Z,7.53
2019-03-26T07:27:35.874Z,8.10
2019-03-26T07:30:09.241Z,7.27
2019-03-26T07:32:40.841Z,5.90
2019-03-26T07:35:13.222Z,6.73
2019-03-26T07:37:45.822Z,7.50
2019-03-26T07:40:17.958Z,6.87
2019-03-26T07:42:49.718Z,8.40
2019-03-26T07:45:21.479Z,6.73
2019-03-26T07:47:53.230Z,8.73
2019-03-26T07:50:24.993Z,6.83
2019-03-26T07:52:56.816Z,7.93
2019-03-26T07:55:28.509Z,7.10
2019-03-26T07:57:59.979Z,6.80
2019-03-26T08:00:37.565Z,8.33
2019-03-26T08:03:09.069Z,7.77
2019-03-26T08:05:40.856Z,6.90
2019-03-26T08:08:12.522Z,7.37
2019-03-26T08:10:44.286Z,6.27
2019-03-26T08:13:16.162Z,7.50
2019-03-26T08:15:47.794Z,8.53
2019-03-26T08:18:19.553Z,7.83
2019-03-26T08:20:51.615Z,6.83
2019-03-26T08:23:23.382Z,6.70
2019-03-26T08:25:54.834Z,7.03
2019-03-26T08:28:26.589Z,6.27
2019-03-26T08:30:58.177Z,7.33
2019-03-26T08:33:29.592Z,5.77
2019-03-26T08:36:00.916Z,7.30
2019-03-26T08:38:33.645Z,6.73
2019-03-26T08:41:04.785Z,6.30
2019-03-26T08:43:36.229Z,7.33
2019-03-26T08:46:07.806Z,6.70
2019-03-26T08:48:39.727Z,6.27
2019-03-26T08:51:11.506Z,6.30
2019-03-26T08:53:43.162Z,6.57
2019-03-26T08:56:14.997Z,7.53
2019-03-26T08:58:46.765Z,6.37
2019-03-26T09:01:18.522Z,6.17
2019-03-26T09:03:50.282Z,5.80
2019-03-26T09:06:22.029Z,8.20
2019-03-26T09:08:53.479Z,7.37
2019-03-26T09:11:25.242Z,5.10
2019-03-26T09:13:57.017Z,5.97
2019-03-26T09:16:29.373Z,6.80
2019-03-26T09:19:01.135Z,6.57
2019-03-26T09:21:32.900Z,7.17
2019-03-26T09:24:03.750Z,7.33
2019-03-26T09:26:34.879Z,6.37
2019-03-26T09:29:05.745Z,10.40
2019-03-26T09:31:37.159Z,8.73
2019-03-26T09:34:10.090Z,8.03
2019-03-26T09:36:41.923Z,8.73
2019-03-26T09:39:13.969Z,8.73
2019-03-26T09:41:45.734Z,6.70
2019-03-26T09:44:17.170Z,7.70
2019-03-26T09:46:48.935Z,6.60
2019-03-26T09:49:20.389Z,7.73
2019-03-26T09:51:52.402Z,6.77
2019-03-26T09:54:24.207Z,9.23
2019-03-26T09:56:55.966Z,7.23
2019-03-26T09:59:30.262Z,7.43
2019-03-26T10:02:01.614Z,9.33
2019-03-26T10:04:33.389Z,7.77
2019-03-26T10:07:04.782Z,7.83
2019-03-26T10:09:36.310Z,7.60
2019-03-26T10:12:08.367Z,6.70
2019-03-26T10:14:40.755Z,5.87
2019-03-26T10:17:12.489Z,8.17
2019-03-26T10:19:44.572Z,6.67
2019-03-26T10:22:16.315Z,7.50
2019-03-26T10:24:47.705Z,6.67
2019-03-26T10:27:19.213Z,7.57
2019-03-26T10:29:51.282Z,9.03
2019-03-26T10:32:23.038Z,6.30
2019-03-26T10:34:55.104Z,7.57
2019-03-26T10:37:26.757Z,6.47
2019-03-26T10:39:58.006Z,7.23
2019-03-26T10:42:29.463Z,7.10
2019-03-26T10:45:00.907Z,7.53
2019-03-26T10:47:32.665Z,9.23
2019-03-26T10:50:03.850Z,6.83
2019-03-26T10:52:35.268Z,7.13
2019-03-26T10:55:07.457Z,7.80
2019-03-26T10:57:38.906Z,6.13
2019-03-26T11:00:10.209Z,6.93
2019-03-26T11:02:41.153Z,8.03
2019-03-26T11:05:12.826Z,7.40
2019-03-26T11:07:44.054Z,7.50
2019-03-26T11:10:15.414Z,7.20
2019-03-26T11:12:46.407Z,6.33
2019-03-26T11:15:17.539Z,6.70
2019-03-26T11:17:49.151Z,8.03
2019-03-26T11:20:21.222Z,5.33
2019-03-26T11:22:53.280Z,5.87
2019-03-26T11:25:25.046Z,6.97
2019-03-26T11:27:56.508Z,10.27
2019-03-26T11:30:27.948Z,7.17
2019-03-26T11:33:00.007Z,6.77
2019-03-26T11:35:32.073Z,6.97
2019-03-26T11:38:03.835Z,6.63
2019-03-26T11:40:35.935Z,5.83
2019-03-26T11:43:07.806Z,5.87
2019-03-26T11:45:39.721Z,6.17
2019-03-26T11:48:11.614Z,8.67
2019-03-26T11:50:43.288Z,5.27
2019-03-26T11:53:15.045Z,6.80
2019-03-26T11:55:46.466Z,6.37
2019-03-26T11:58:29.964Z,5.03
2019-03-26T12:00:51.499Z,7.53
2019-03-26T12:03:25.499Z,6.07
2019-03-26T12:05:57.195Z,6.30
2019-03-26T12:08:28.949Z,5.63
2019-03-26T12:11:00.992Z,6.90
2019-03-26T12:13:32.423Z,5.10
2019-03-26T12:16:03.894Z,9.93
2019-03-26T12:18:35.959Z,5.03
2019-03-26T12:21:08.493Z,6.40
2019-03-26T12:23:40.426Z,6.77
2019-03-26T12:26:11.506Z,6.03
2019-03-26T12:28:44.522Z,6.10
2019-03-26T12:31:15.394Z,5.87
2019-03-26T12:33:46.889Z,5.27
2019-03-26T12:36:18.878Z,4.20
2019-03-26T12:38:50.066Z,5.77
2019-03-26T12:41:21.305Z,5.37
2019-03-26T12:43:52.630Z,6.73
2019-03-26T12:46:24.027Z,6.20
2019-03-26T12:48:54.931Z,4.90
2019-03-26T12:51:25.819Z,5.53
2019-03-26T12:53:57.185Z,5.80
2019-03-26T12:56:28.114Z,4.53
2019-03-26T12:59:00.400Z,4.53
2019-03-26T13:01:31.462Z,4.50
2019-03-26T13:04:12.469Z,7.00
2019-03-26T13:06:35.421Z,5.57
2019-03-26T13:09:08.981Z,4.50
2019-03-26T13:11:40.186Z,4.80
2019-03-26T13:14:11.560Z,4.90
2019-03-26T13:16:42.786Z,5.40
2019-03-26T13:19:14.765Z,5.03
2019-03-26T13:21:45.767Z,5.70
2019-03-26T13:24:16.745Z,5.33
2019-03-26T13:26:49.074Z,5.17
2019-03-26T13:29:20.268Z,8.17
2019-03-26T13:31:51.435Z,4.77
2019-03-26T13:34:22.555Z,3.83
2019-03-26T13:36:54.694Z,4.40
2019-03-26T13:39:27.602Z,4.07
2019-03-26T13:41:59.689Z,3.87
2019-03-26T13:44:31.466Z,4.67
2019-03-26T13:47:03.187Z,4.10
2019-03-26T13:49:34.667Z,4.73
2019-03-26T13:52:06.014Z,4.63
2019-03-26T13:54:38.155Z,4.77
2019-03-26T13:57:09.605Z,3.70
2019-03-26T13:59:41.662Z,5.80
2019-03-26T14:02:13.121Z,5.97
2019-03-26T14:04:44.576Z,4.90
2019-03-26T14:07:15.733Z,5.37
2019-03-26T14:09:46.587Z,5.37
2019-03-26T14:12:19.175Z,3.87
2019-03-26T14:14:49.881Z,4.20
2019-03-26T14:17:21.210Z,4.73
2019-03-26T14:19:52.074Z,4.00
2019-03-26T14:22:23.190Z,3.20
2019-03-26T14:24:54.110Z,4.10
2019-03-26T14:27:25.521Z,4.33
2019-03-26T14:29:56.658Z,4.23
2019-03-26T14:32:27.766Z,4.13
2019-03-26T14:34:59.215Z,4.10
2019-03-26T14:37:30.824Z,4.10
2019-03-26T14:40:02.748Z,4.83
2019-03-26T14:42:34.490Z,5.53
2019-03-26T14:45:06.754Z,4.40
2019-03-26T14:47:38.622Z,4.53
2019-03-26T14:50:10.934Z,3.70
2019-03-26T14:52:42.443Z,3.67
2019-03-26T14:55:14.252Z,5.12
2019-03-26T14:57:46.987Z,4.03
2019-03-26T15:00:18.751Z,4.67
2019-03-26T15:02:50.195Z,4.67
2019-03-26T15:05:22.261Z,5.77
2019-03-26T15:07:54.573Z,7.27
2019-03-26T15:10:26.338Z,7.83
2019-03-26T15:12:58.762Z,6.80
2019-03-26T15:15:30.516Z,9.43
2019-03-26T15:18:02.585Z,8.43
2019-03-26T15:20:34.350Z,10.67
2019-03-26T15:23:06.041Z,11.63
2019-03-26T15:25:37.556Z,11.30
2019-03-26T15:28:11.739Z,10.87
2019-03-26T15:30:43.451Z,10.93
2019-03-26T15:33:15.233Z,10.57
2019-03-26T15:35:47.007Z,11.93
2019-03-26T15:38:18.494Z,11.23
2019-03-26T15:40:50.251Z,12.10
2019-03-26T15:43:22.012Z,9.33
2019-03-26T15:45:53.464Z,11.83
2019-03-26T15:48:25.219Z,10.63
2019-03-26T15:50:57.286Z,11.07
2019-03-26T15:53:29.347Z,10.63
2019-03-26T15:56:01.138Z,16.27
2019-03-26T15:58:32.880Z,13.10
2019-03-26T16:01:04.403Z,10.50
2019-03-26T16:03:36.693Z,12.50
2019-03-26T16:06:08.447Z,12.13
2019-03-26T16:08:40.197Z,13.27
2019-03-26T16:11:11.652Z,11.40
2019-03-26T16:13:43.104Z,10.03
2019-03-26T16:16:15.478Z,10.27
2019-03-26T16:18:47.855Z,10.27
2019-03-26T16:21:19.724Z,11.47
2019-03-26T16:23:51.669Z,9.03
2019-03-26T16:26:23.435Z,9.60
2019-03-26T16:28:55.163Z,13.63
2019-03-26T16:31:26.990Z,13.20
2019-03-26T16:33:59.028Z,10.87
2019-03-26T16:36:30.341Z,10.03
2019-03-26T16:39:02.226Z,8.27
2019-03-26T16:41:48.059Z,11.33
2019-03-26T16:44:08.809Z,11.97
2019-03-26T16:46:40.567Z,12.40
2019-03-26T16:49:11.712Z,8.87
2019-03-26T16:51:42.582Z,7.10
2019-03-26T16:54:14.310Z,9.83
2019-03-26T16:56:45.293Z,9.73
2019-03-26T16:59:16.621Z,8.73
2019-03-26T17:01:47.445Z,8.77
2019-03-26T17:04:18.883Z,10.53
2019-03-26T17:06:49.762Z,7.30
2019-03-26T17:09:21.186Z,7.07
2019-03-26T17:12:02.398Z,8.27
2019-03-26T17:14:25.606Z,6.27
2019-03-26T17:16:56.539Z,7.10
2019-03-26T17:19:27.885Z,8.97
2019-03-26T17:21:58.758Z,9.00
2019-03-26T17:24:30.177Z,8.27
2019-03-26T17:27:01.313Z,7.90
2019-03-26T17:29:32.814Z,6.07
2019-03-26T17:32:03.643Z,7.50
2019-03-26T17:34:35.065Z,5.47
2019-03-26T17:37:07.748Z,7.10
2019-03-26T17:39:39.501Z,4.93
2019-03-26T17:42:17.450Z,6.67
2019-03-26T17:44:45.475Z,5.97
2019-03-26T17:47:17.246Z,5.53
2019-03-26T17:49:48.535Z,6.40
2019-03-26T17:52:22.087Z,6.07
2019-03-26T17:54:53.071Z,6.83
2019-03-26T17:57:24.877Z,7.93
2019-03-26T17:59:55.905Z,6.37
2019-03-26T18:02:27.225Z,5.83
2019-03-26T18:04:58.042Z,5.90
2019-03-26T18:07:29.763Z,5.23
2019-03-26T18:10:00.680Z,5.70
2019-03-26T18:12:33.214Z,5.10
2019-03-26T18:15:03.923Z,6.23
2019-03-26T18:17:35.883Z,5.40
2019-03-26T18:20:07.050Z,5.47
2019-03-26T18:22:38.389Z,5.20
2019-03-26T18:25:09.706Z,4.70
2019-03-26T18:27:41.367Z,6.97
2019-03-26T18:30:12.509Z,4.50
2019-03-26T18:32:43.649Z,5.33
2019-03-26T18:35:14.565Z,6.07
2019-03-26T18:37:47.205Z,7.93
2019-03-26T18:40:18.622Z,5.93
2019-03-26T18:42:50.077Z,4.70
2019-03-26T18:45:21.846Z,5.53
2019-03-26T18:47:53.902Z,6.43
2019-03-26T18:50:25.415Z,4.10
2019-03-26T18:52:56.761Z,5.23
2019-03-26T18:55:29.796Z,3.87
2019-03-26T18:58:01.863Z,4.53
2019-03-26T19:00:37.293Z,6.07
2019-03-26T19:03:09.537Z,4.47
2019-03-26T19:05:41.449Z,4.57
2019-03-26T19:08:13.178Z,4.80
2019-03-26T19:10:44.891Z,4.53
2019-03-26T19:13:19.756Z,3.80
2019-03-26T19:15:49.927Z,4.17
2019-03-26T19:18:22.072Z,5.90
2019-03-26T19:21:02.023Z,4.43
2019-03-26T19:23:27.473Z,4.17
2019-03-26T19:25:59.630Z,4.83
2019-03-26T19:28:31.355Z,3.73
2019-03-26T19:31:03.523Z,4.67
2019-03-26T19:33:35.142Z,4.90
2019-03-26T19:36:07.089Z,5.80
2019-03-26T19:38:39.002Z,5.00
2019-03-26T19:41:12.141Z,4.63
2019-03-26T19:43:44.042Z,4.27
2019-03-26T19:46:17.977Z,3.67
2019-03-26T19:48:50.132Z,3.63
2019-03-26T19:51:22.043Z,3.97
2019-03-26T19:53:54.382Z,4.40
2019-03-26T19:56:26.379Z,3.87
2019-03-26T19:58:58.617Z,4.93
2019-03-26T20:01:30.382Z,4.27
2019-03-26T20:04:01.994Z,5.03
2019-03-26T20:06:34.282Z,4.50
2019-03-26T20:09:07.193Z,4.70
2019-03-26T20:11:39.465Z,5.07
2019-03-26T20:14:12.013Z,5.23
2019-03-26T20:16:43.879Z,3.80
2019-03-26T20:19:17.743Z,4.07
2019-03-26T20:21:50.143Z,4.87
2019-03-26T20:24:21.700Z,3.87
2019-03-26T20:26:54.254Z,3.83
2019-03-26T20:29:26.248Z,3.50
2019-03-26T20:31:58.446Z,4.00
2019-03-26T20:34:30.362Z,4.10
2019-03-26T20:37:02.304Z,3.90
2019-03-26T20:39:34.638Z,3.70
2019-03-26T20:42:06.608Z,4.73
2019-03-26T20:44:38.903Z,4.47
2019-03-26T20:47:10.141Z,4.07
2019-03-26T20:49:42.154Z,4.07
2019-03-26T20:52:14.221Z,3.80
2019-03-26T20:54:46.734Z,3.40
2019-03-26T20:57:18.642Z,5.03
2019-03-26T20:59:50.814Z,3.97
2019-03-26T21:02:22.276Z,2.87
2019-03-26T21:04:54.322Z,3.73
2019-03-26T21:07:25.757Z,3.97
2019-03-26T21:09:57.924Z,4.77
2019-03-26T21:12:29.911Z,4.50
2019-03-26T21:15:01.687Z,3.63
2019-03-26T21:17:34.038Z,3.13
2019-03-26T21:20:08.574Z,3.77
2019-03-26T21:22:40.255Z,4.10
2019-03-26T21:25:12.295Z,4.40
2019-03-26T21:27:44.473Z,3.80
2019-03-26T21:30:16.985Z,4.70
2019-03-26T21:32:49.280Z,4.17
2019-03-26T21:35:21.353Z,4.27
2019-03-26T21:37:53.753Z,5.47
2019-03-26T21:40:25.389Z,5.57
2019-03-26T21:42:56.840Z,4.53
2019-03-26T21:45:36.430Z,6.00
2019-03-26T21:48:08.873Z,5.20
2019-03-26T21:50:40.737Z,4.73
2019-03-26T21:53:12.240Z,5.47
2019-03-26T21:55:45.786Z,3.43
2019-03-26T21:58:17.534Z,4.83
2019-03-26T22:00:49.291Z,6.70
2019-03-26T22:03:21.050Z,5.90
2019-03-26T22:05:53.137Z,4.43
2019-03-26T22:08:24.870Z,3.80
2019-03-26T22:10:56.931Z,5.20
2019-03-26T22:13:28.512Z,4.00
2019-03-26T22:16:00.337Z,3.80
2019-03-26T22:18:31.914Z,5.67
2019-03-26T22:21:05.194Z,4.83
2019-03-26T22:23:38.500Z,5.20
2019-03-26T22:26:10.246Z,4.87
2019-03-26T22:28:42.002Z,5.67
2019-03-26T22:31:13.693Z,3.33
2019-03-26T22:33:45.464Z,4.03
2019-03-26T22:36:16.976Z,4.43
2019-03-26T22:38:48.371Z,6.20
2019-03-26T22:41:19.870Z,3.77
2019-03-26T22:43:54.972Z,3.67
2019-03-26T22:46:25.544Z,5.10
2019-03-26T22:48:57.905Z,4.63
2019-03-26T22:51:29.357Z,3.50
2019-03-26T22:54:01.119Z,4.23
2019-03-26T22:56:32.574Z,5.37
2019-03-26T22:59:04.946Z,5.07
2019-03-26T23:01:36.727Z,4.43
2019-03-26T23:04:08.246Z,3.33
2019-03-26T23:06:39.631Z,4.93
2019-03-26T23:09:11.669Z,3.57
2019-03-26T23:11:43.734Z,3.70
2019-03-26T23:14:15.810Z,4.57
2019-03-26T23:16:47.060Z,4.80
2019-03-26T23:19:18.422Z,3.77
2019-03-26T23:21:49.847Z,5.93
2019-03-26T23:24:21.413Z,5.10
2019-03-26T23:26:52.750Z,5.43
2019-03-26T23:29:24.493Z,3.70
2019-03-26T23:31:56.265Z,3.40
2019-03-26T23:34:28.014Z,3.23
2019-03-26T23:36:59.198Z,3.70
2019-03-26T23:39:30.924Z,4.07
2019-03-26T23:42:03.298Z,4.93
2019-03-26T23:44:35.045Z,7.30
2019-03-26T23:47:07.113Z,3.73
2019-03-26T23:49:38.730Z,4.30
2019-03-26T23:52:10.398Z,5.33
2019-03-26T23:54:42.084Z,3.73
2019-03-26T23:57:13.832Z,2.93
2019-03-26T23:59:45.310Z,3.80
